sensor_id;sensor_type;location;lat;lon;timestamp;P1;durP1;ratioP1;P2;durP2;ratioP2
3333;SDS011;1679;50.392;8.008;2022-11-15T00:00:53;20.77;;;16.50;;
3333;SDS011;1679;50.392;8.008;2022-11-15T00:03:20;22.10;;;18.07;;
3333;SDS011;1679;50.392;8.008;2022-11-15T00:05:49;20.50;;;16.50;;
3333;SDS011;1679;50.392;8.008;2022-11-15T00:08:15;24.53;;;16.33;;
3333;SDS011;1679;50.392;8.008;2022-11-15T00:10:41;26.30;;;17.13;;
3333;SDS011;1679;50.392;8.008;2022-11-15T00:13:07;21.50;;;16.70;;
3333;SDS011;1679;50.392;8.008;2022-11-15T00:15:37;22.13;;;16.53;;
3333;SDS011;1679;50.392;8.008;2022-11-15T00:18:04;19.27;;;16.50;;
3333;SDS011;1679;50.392;8.008;2022-11-15T00:20:30;22.33;;;16.80;;
3333;SDS011;1679;50.392;8.008;2022-11-15T00:22:58;21.10;;;17.90;;
3333;SDS011;1679;50.392;8.008;2022-11-15T00:25:23;22.73;;;18.37;;
3333;SDS011;1679;50.392;8.008;2022-11-15T00:27:49;24.30;;;17.50;;
3333;SDS011;1679;50.392;8.008;2022-11-15T00:30:16;22.37;;;18.93;;
3333;SDS011;1679;50.392;8.008;2022-11-15T00:32:42;21.23;;;17.47;;
3333;SDS011;1679;50.392;8.008;2022-11-15T00:35:07;25.73;;;18.13;;
3333;SDS011;1679;50.392;8.008;2022-11-15T00:37:33;22.63;;;17.03;;
3333;SDS011;1679;50.392;8.008;2022-11-15T00:39:58;27.73;;;17.70;;
3333;SDS011;1679;50.392;8.008;2022-11-15T00:42:24;35.13;;;19.00;;
3333;SDS011;1679;50.392;8.008;2022-11-15T00:44:49;25.60;;;17.37;;
3333;SDS011;1679;50.392;8.008;2022-11-15T00:47:15;21.47;;;17.53;;
3333;SDS011;1679;50.392;8.008;2022-11-15T00:49:40;22.77;;;16.60;;
3333;SDS011;1679;50.392;8.008;2022-11-15T00:52:06;24.30;;;18.20;;
3333;SDS011;1679;50.392;8.008;2022-11-15T00:54:32;21.90;;;16.50;;
3333;SDS011;1679;50.392;8.008;2022-11-15T00:56:57;20.73;;;16.10;;
3333;SDS011;1679;50.392;8.008;2022-11-15T00:59:23;20.80;;;16.10;;
3333;SDS011;1679;50.392;8.008;2022-11-15T01:01:48;19.77;;;15.97;;
3333;SDS011;1679;50.392;8.008;2022-11-15T01:04:14;15.87;;;14.17;;
3333;SDS011;1679;50.392;8.008;2022-11-15T01:06:39;19.47;;;15.73;;
3333;SDS011;1679;50.392;8.008;2022-11-15T01:09:05;18.23;;;14.90;;
3333;SDS011;1679;50.392;8.008;2022-11-15T01:11:30;19.33;;;14.90;;
3333;SDS011;1679;50.392;8.008;2022-11-15T01:13:56;20.63;;;14.37;;
3333;SDS011;1679;50.392;8.008;2022-11-15T01:16:21;19.60;;;15.17;;
3333;SDS011;1679;50.392;8.008;2022-11-15T01:18:47;16.50;;;13.40;;
3333;SDS011;1679;50.392;8.008;2022-11-15T01:21:14;18.03;;;14.50;;
3333;SDS011;1679;50.392;8.008;2022-11-15T01:23:41;17.80;;;13.63;;
3333;SDS011;1679;50.392;8.008;2022-11-15T01:26:09;16.20;;;14.17;;
3333;SDS011;1679;50.392;8.008;2022-11-15T01:28:37;18.13;;;14.57;;
3333;SDS011;1679;50.392;8.008;2022-11-15T01:31:05;16.23;;;13.50;;
3333;SDS011;1679;50.392;8.008;2022-11-15T01:33:41;19.07;;;15.20;;
3333;SDS011;1679;50.392;8.008;2022-11-15T01:36:07;17.93;;;14.57;;
3333;SDS011;1679;50.392;8.008;2022-11-15T01:38:38;17.00;;;14.87;;
3333;SDS011;1679;50.392;8.008;2022-11-15T01:41:04;19.40;;;14.60;;
3333;SDS011;1679;50.392;8.008;2022-11-15T01:43:34;18.13;;;14.37;;
3333;SDS011;1679;50.392;8.008;2022-11-15T01:46:22;17.60;;;14.37;;
3333;SDS011;1679;50.392;8.008;2022-11-15T01:48:59;16.00;;;14.30;;
3333;SDS011;1679;50.392;8.008;2022-11-15T01:51:29;19.40;;;15.17;;
3333;SDS011;1679;50.392;8.008;2022-11-15T01:53:58;20.00;;;14.97;;
3333;SDS011;1679;50.392;8.008;2022-11-15T01:56:37;23.60;;;16.80;;
3333;SDS011;1679;50.392;8.008;2022-11-15T01:59:10;20.80;;;14.77;;
3333;SDS011;1679;50.392;8.008;2022-11-15T02:01:36;13.80;;;12.40;;
3333;SDS011;1679;50.392;8.008;2022-11-15T02:04:07;17.10;;;12.70;;
3333;SDS011;1679;50.392;8.008;2022-11-15T02:06:37;17.10;;;13.50;;
3333;SDS011;1679;50.392;8.008;2022-11-15T02:09:03;18.37;;;13.17;;
3333;SDS011;1679;50.392;8.008;2022-11-15T02:11:29;18.73;;;13.70;;
3333;SDS011;1679;50.392;8.008;2022-11-15T02:13:55;21.60;;;13.53;;
3333;SDS011;1679;50.392;8.008;2022-11-15T02:25:07;15.07;;;13.07;;
3333;SDS011;1679;50.392;8.008;2022-11-15T02:27:46;20.73;;;13.97;;
3333;SDS011;1679;50.392;8.008;2022-11-15T02:30:27;17.10;;;13.73;;
3333;SDS011;1679;50.392;8.008;2022-11-15T02:33:06;18.20;;;13.70;;
3333;SDS011;1679;50.392;8.008;2022-11-15T02:35:57;17.83;;;14.30;;
3333;SDS011;1679;50.392;8.008;2022-11-15T02:41:38;17.80;;;12.63;;
3333;SDS011;1679;50.392;8.008;2022-11-15T02:44:22;18.47;;;13.57;;
3333;SDS011;1679;50.392;8.008;2022-11-15T02:46:53;17.83;;;14.60;;
3333;SDS011;1679;50.392;8.008;2022-11-15T02:49:39;16.10;;;13.50;;
3333;SDS011;1679;50.392;8.008;2022-11-15T02:52:08;16.30;;;12.80;;
3333;SDS011;1679;50.392;8.008;2022-11-15T02:54:34;16.90;;;14.07;;
3333;SDS011;1679;50.392;8.008;2022-11-15T02:57:07;18.53;;;13.00;;
3333;SDS011;1679;50.392;8.008;2022-11-15T03:08:31;14.90;;;13.33;;
3333;SDS011;1679;50.392;8.008;2022-11-15T03:11:09;17.93;;;14.27;;
3333;SDS011;1679;50.392;8.008;2022-11-15T03:16:41;17.50;;;14.47;;
3333;SDS011;1679;50.392;8.008;2022-11-15T03:22:16;16.47;;;12.93;;
3333;SDS011;1679;50.392;8.008;2022-11-15T03:24:43;17.17;;;13.10;;
3333;SDS011;1679;50.392;8.008;2022-11-15T03:27:13;17.63;;;12.90;;
3333;SDS011;1679;50.392;8.008;2022-11-15T03:29:46;18.27;;;13.50;;
3333;SDS011;1679;50.392;8.008;2022-11-15T03:32:17;15.30;;;13.03;;
3333;SDS011;1679;50.392;8.008;2022-11-15T03:34:58;15.03;;;13.00;;
3333;SDS011;1679;50.392;8.008;2022-11-15T03:37:29;17.50;;;11.90;;
3333;SDS011;1679;50.392;8.008;2022-11-15T03:40:03;17.27;;;12.50;;
3333;SDS011;1679;50.392;8.008;2022-11-15T03:42:36;14.33;;;12.83;;
3333;SDS011;1679;50.392;8.008;2022-11-15T03:45:26;13.37;;;11.97;;
3333;SDS011;1679;50.392;8.008;2022-11-15T03:48:09;15.80;;;12.00;;
3333;SDS011;1679;50.392;8.008;2022-11-15T03:50:38;15.37;;;11.70;;
3333;SDS011;1679;50.392;8.008;2022-11-15T03:53:05;12.60;;;11.40;;
3333;SDS011;1679;50.392;8.008;2022-11-15T03:55:31;14.90;;;13.13;;
3333;SDS011;1679;50.392;8.008;2022-11-15T03:57:58;15.40;;;11.37;;
3333;SDS011;1679;50.392;8.008;2022-11-15T04:00:25;13.67;;;11.23;;
3333;SDS011;1679;50.392;8.008;2022-11-15T04:02:51;13.60;;;11.40;;
3333;SDS011;1679;50.392;8.008;2022-11-15T04:05:17;11.53;;;10.33;;
3333;SDS011;1679;50.392;8.008;2022-11-15T04:07:43;12.70;;;10.70;;
3333;SDS011;1679;50.392;8.008;2022-11-15T04:10:09;12.00;;;10.20;;
3333;SDS011;1679;50.392;8.008;2022-11-15T04:12:36;11.43;;;9.83;;
3333;SDS011;1679;50.392;8.008;2022-11-15T04:15:09;9.97;;;9.07;;
3333;SDS011;1679;50.392;8.008;2022-11-15T04:17:36;12.40;;;10.40;;
3333;SDS011;1679;50.392;8.008;2022-11-15T04:20:04;11.87;;;10.67;;
3333;SDS011;1679;50.392;8.008;2022-11-15T04:22:54;13.97;;;10.07;;
3333;SDS011;1679;50.392;8.008;2022-11-15T04:25:39;9.93;;;9.10;;
3333;SDS011;1679;50.392;8.008;2022-11-15T04:28:05;10.97;;;9.87;;
3333;SDS011;1679;50.392;8.008;2022-11-15T04:30:31;9.67;;;8.70;;
3333;SDS011;1679;50.392;8.008;2022-11-15T04:32:57;8.57;;;7.73;;
3333;SDS011;1679;50.392;8.008;2022-11-15T04:35:22;9.00;;;8.20;;
3333;SDS011;1679;50.392;8.008;2022-11-15T04:37:48;9.47;;;8.57;;
3333;SDS011;1679;50.392;8.008;2022-11-15T04:40:13;10.33;;;8.80;;
3333;SDS011;1679;50.392;8.008;2022-11-15T04:42:40;9.77;;;8.13;;
3333;SDS011;1679;50.392;8.008;2022-11-15T04:45:07;10.00;;;9.10;;
3333;SDS011;1679;50.392;8.008;2022-11-15T04:47:33;9.63;;;8.70;;
3333;SDS011;1679;50.392;8.008;2022-11-15T04:49:59;9.40;;;8.60;;
3333;SDS011;1679;50.392;8.008;2022-11-15T04:52:25;9.87;;;8.70;;
3333;SDS011;1679;50.392;8.008;2022-11-15T04:54:50;9.97;;;7.60;;
3333;SDS011;1679;50.392;8.008;2022-11-15T04:57:16;8.03;;;7.23;;
3333;SDS011;1679;50.392;8.008;2022-11-15T04:59:41;9.00;;;7.60;;
3333;SDS011;1679;50.392;8.008;2022-11-15T05:02:07;8.87;;;7.70;;
3333;SDS011;1679;50.392;8.008;2022-11-15T05:04:32;8.90;;;8.00;;
3333;SDS011;1679;50.392;8.008;2022-11-15T05:06:58;8.33;;;7.50;;
3333;SDS011;1679;50.392;8.008;2022-11-15T05:09:23;9.47;;;8.40;;
3333;SDS011;1679;50.392;8.008;2022-11-15T05:11:49;11.20;;;9.77;;
3333;SDS011;1679;50.392;8.008;2022-11-15T05:14:14;8.20;;;7.50;;
3333;SDS011;1679;50.392;8.008;2022-11-15T05:16:40;8.07;;;7.27;;
3333;SDS011;1679;50.392;8.008;2022-11-15T05:19:06;8.17;;;7.47;;
3333;SDS011;1679;50.392;8.008;2022-11-15T05:21:32;12.67;;;7.80;;
3333;SDS011;1679;50.392;8.008;2022-11-15T05:23:58;8.93;;;8.00;;
3333;SDS011;1679;50.392;8.008;2022-11-15T05:26:24;8.73;;;7.97;;
3333;SDS011;1679;50.392;8.008;2022-11-15T05:28:53;8.30;;;7.40;;
3333;SDS011;1679;50.392;8.008;2022-11-15T05:31:20;8.27;;;7.27;;
3333;SDS011;1679;50.392;8.008;2022-11-15T05:33:46;9.93;;;8.47;;
3333;SDS011;1679;50.392;8.008;2022-11-15T05:36:13;12.37;;;8.70;;
3333;SDS011;1679;50.392;8.008;2022-11-15T05:38:58;9.60;;;8.43;;
3333;SDS011;1679;50.392;8.008;2022-11-15T05:41:29;11.37;;;8.93;;
3333;SDS011;1679;50.392;8.008;2022-11-15T05:43:59;9.43;;;8.23;;
3333;SDS011;1679;50.392;8.008;2022-11-15T05:46:26;10.80;;;8.67;;
3333;SDS011;1679;50.392;8.008;2022-11-15T05:48:52;10.73;;;9.40;;
3333;SDS011;1679;50.392;8.008;2022-11-15T05:51:19;12.60;;;10.40;;
3333;SDS011;1679;50.392;8.008;2022-11-15T05:53:47;13.23;;;10.80;;
3333;SDS011;1679;50.392;8.008;2022-11-15T05:56:13;14.10;;;12.50;;
3333;SDS011;1679;50.392;8.008;2022-11-15T05:58:39;12.40;;;11.30;;
3333;SDS011;1679;50.392;8.008;2022-11-15T06:01:05;12.13;;;10.93;;
3333;SDS011;1679;50.392;8.008;2022-11-15T06:03:31;10.30;;;9.03;;
3333;SDS011;1679;50.392;8.008;2022-11-15T06:05:57;14.37;;;10.53;;
3333;SDS011;1679;50.392;8.008;2022-11-15T06:08:22;12.03;;;10.47;;
3333;SDS011;1679;50.392;8.008;2022-11-15T06:10:48;17.37;;;12.30;;
3333;SDS011;1679;50.392;8.008;2022-11-15T06:13:13;12.83;;;11.30;;
3333;SDS011;1679;50.392;8.008;2022-11-15T06:15:39;16.10;;;11.50;;
3333;SDS011;1679;50.392;8.008;2022-11-15T06:18:04;13.20;;;11.83;;
3333;SDS011;1679;50.392;8.008;2022-11-15T06:20:30;18.10;;;11.37;;
3333;SDS011;1679;50.392;8.008;2022-11-15T06:22:58;16.33;;;11.63;;
3333;SDS011;1679;50.392;8.008;2022-11-15T06:25:25;15.10;;;11.97;;
3333;SDS011;1679;50.392;8.008;2022-11-15T06:27:52;14.67;;;11.53;;
3333;SDS011;1679;50.392;8.008;2022-11-15T06:30:18;17.73;;;12.43;;
3333;SDS011;1679;50.392;8.008;2022-11-15T06:32:44;14.70;;;11.97;;
3333;SDS011;1679;50.392;8.008;2022-11-15T06:35:10;17.00;;;14.77;;
3333;SDS011;1679;50.392;8.008;2022-11-15T06:37:36;15.17;;;12.50;;
3333;SDS011;1679;50.392;8.008;2022-11-15T06:40:02;13.70;;;11.77;;
3333;SDS011;1679;50.392;8.008;2022-11-15T06:42:27;12.73;;;11.50;;
3333;SDS011;1679;50.392;8.008;2022-11-15T06:44:53;11.50;;;10.30;;
3333;SDS011;1679;50.392;8.008;2022-11-15T06:47:18;12.90;;;11.60;;
3333;SDS011;1679;50.392;8.008;2022-11-15T06:49:44;19.57;;;17.50;;
3333;SDS011;1679;50.392;8.008;2022-11-15T06:52:09;17.03;;;14.30;;
3333;SDS011;1679;50.392;8.008;2022-11-15T06:54:35;14.17;;;12.20;;
3333;SDS011;1679;50.392;8.008;2022-11-15T06:57:00;14.60;;;12.67;;
3333;SDS011;1679;50.392;8.008;2022-11-15T06:59:26;15.90;;;11.77;;
3333;SDS011;1679;50.392;8.008;2022-11-15T07:01:51;12.83;;;11.53;;
3333;SDS011;1679;50.392;8.008;2022-11-15T07:04:17;14.50;;;13.00;;
3333;SDS011;1679;50.392;8.008;2022-11-15T07:06:42;13.60;;;11.93;;
3333;SDS011;1679;50.392;8.008;2022-11-15T07:09:12;18.87;;;15.67;;
3333;SDS011;1679;50.392;8.008;2022-11-15T07:11:38;94.87;;;43.40;;
3333;SDS011;1679;50.392;8.008;2022-11-15T07:14:05;107.47;;;49.13;;
3333;SDS011;1679;50.392;8.008;2022-11-15T07:16:30;50.57;;;28.73;;
3333;SDS011;1679;50.392;8.008;2022-11-15T07:18:56;32.13;;;20.50;;
3333;SDS011;1679;50.392;8.008;2022-11-15T07:21:22;24.30;;;16.00;;
3333;SDS011;1679;50.392;8.008;2022-11-15T07:23:47;17.90;;;14.57;;
3333;SDS011;1679;50.392;8.008;2022-11-15T07:26:13;14.87;;;12.90;;
3333;SDS011;1679;50.392;8.008;2022-11-15T07:28:38;16.30;;;13.43;;
3333;SDS011;1679;50.392;8.008;2022-11-15T07:31:07;13.73;;;12.27;;
3333;SDS011;1679;50.392;8.008;2022-11-15T07:33:34;14.30;;;11.73;;
3333;SDS011;1679;50.392;8.008;2022-11-15T07:36:00;13.53;;;11.10;;
3333;SDS011;1679;50.392;8.008;2022-11-15T07:38:27;14.27;;;11.47;;
3333;SDS011;1679;50.392;8.008;2022-11-15T07:40:57;13.30;;;11.90;;
3333;SDS011;1679;50.392;8.008;2022-11-15T07:43:24;12.90;;;11.60;;
3333;SDS011;1679;50.392;8.008;2022-11-15T07:45:49;14.33;;;10.80;;
3333;SDS011;1679;50.392;8.008;2022-11-15T07:48:15;12.70;;;11.40;;
3333;SDS011;1679;50.392;8.008;2022-11-15T07:50:41;13.07;;;11.77;;
3333;SDS011;1679;50.392;8.008;2022-11-15T07:53:09;13.83;;;11.30;;
3333;SDS011;1679;50.392;8.008;2022-11-15T07:55:35;12.53;;;11.30;;
3333;SDS011;1679;50.392;8.008;2022-11-15T07:58:02;13.87;;;12.40;;
3333;SDS011;1679;50.392;8.008;2022-11-15T08:00:29;15.37;;;13.03;;
3333;SDS011;1679;50.392;8.008;2022-11-15T08:03:01;14.73;;;12.43;;
3333;SDS011;1679;50.392;8.008;2022-11-15T08:05:31;13.53;;;11.47;;
3333;SDS011;1679;50.392;8.008;2022-11-15T08:07:57;15.47;;;11.67;;
3333;SDS011;1679;50.392;8.008;2022-11-15T08:10:23;13.10;;;11.60;;
3333;SDS011;1679;50.392;8.008;2022-11-15T08:12:56;14.00;;;11.87;;
3333;SDS011;1679;50.392;8.008;2022-11-15T08:15:25;14.27;;;12.17;;
3333;SDS011;1679;50.392;8.008;2022-11-15T08:17:55;14.40;;;12.87;;
3333;SDS011;1679;50.392;8.008;2022-11-15T08:20:22;15.40;;;12.73;;
3333;SDS011;1679;50.392;8.008;2022-11-15T08:22:48;16.20;;;13.23;;
3333;SDS011;1679;50.392;8.008;2022-11-15T08:25:13;18.43;;;13.57;;
3333;SDS011;1679;50.392;8.008;2022-11-15T08:27:39;13.90;;;12.33;;
3333;SDS011;1679;50.392;8.008;2022-11-15T08:30:05;15.77;;;12.30;;
3333;SDS011;1679;50.392;8.008;2022-11-15T08:32:31;15.43;;;11.50;;
3333;SDS011;1679;50.392;8.008;2022-11-15T08:34:57;15.47;;;12.83;;
3333;SDS011;1679;50.392;8.008;2022-11-15T08:37:22;19.60;;;17.50;;
3333;SDS011;1679;50.392;8.008;2022-11-15T08:39:48;21.43;;;19.13;;
3333;SDS011;1679;50.392;8.008;2022-11-15T08:42:14;16.07;;;14.37;;
3333;SDS011;1679;50.392;8.008;2022-11-15T08:44:41;13.20;;;11.90;;
3333;SDS011;1679;50.392;8.008;2022-11-15T08:47:07;14.20;;;11.80;;
3333;SDS011;1679;50.392;8.008;2022-11-15T08:49:35;12.47;;;10.27;;
3333;SDS011;1679;50.392;8.008;2022-11-15T08:52:01;12.80;;;11.47;;
3333;SDS011;1679;50.392;8.008;2022-11-15T08:54:26;12.53;;;11.00;;
3333;SDS011;1679;50.392;8.008;2022-11-15T08:56:52;14.13;;;11.37;;
3333;SDS011;1679;50.392;8.008;2022-11-15T08:59:17;13.00;;;11.70;;
3333;SDS011;1679;50.392;8.008;2022-11-15T09:01:43;16.23;;;12.00;;
3333;SDS011;1679;50.392;8.008;2022-11-15T09:04:08;12.83;;;11.40;;
3333;SDS011;1679;50.392;8.008;2022-11-15T09:06:34;12.03;;;10.73;;
3333;SDS011;1679;50.392;8.008;2022-11-15T09:09:00;12.97;;;11.00;;
3333;SDS011;1679;50.392;8.008;2022-11-15T09:11:26;12.07;;;10.80;;
3333;SDS011;1679;50.392;8.008;2022-11-15T09:13:52;11.93;;;10.73;;
3333;SDS011;1679;50.392;8.008;2022-11-15T09:16:18;12.00;;;10.60;;
3333;SDS011;1679;50.392;8.008;2022-11-15T09:18:43;12.43;;;11.10;;
3333;SDS011;1679;50.392;8.008;2022-11-15T09:21:09;12.30;;;11.00;;
3333;SDS011;1679;50.392;8.008;2022-11-15T09:23:35;13.53;;;11.77;;
3333;SDS011;1679;50.392;8.008;2022-11-15T09:26:01;12.73;;;11.53;;
3333;SDS011;1679;50.392;8.008;2022-11-15T09:28:28;13.03;;;11.70;;
3333;SDS011;1679;50.392;8.008;2022-11-15T09:30:57;14.00;;;12.50;;
3333;SDS011;1679;50.392;8.008;2022-11-15T09:33:24;12.87;;;11.53;;
3333;SDS011;1679;50.392;8.008;2022-11-15T09:35:51;14.10;;;12.57;;
3333;SDS011;1679;50.392;8.008;2022-11-15T09:38:17;12.60;;;11.30;;
3333;SDS011;1679;50.392;8.008;2022-11-15T09:40:42;15.40;;;13.10;;
3333;SDS011;1679;50.392;8.008;2022-11-15T09:43:26;12.80;;;11.50;;
3333;SDS011;1679;50.392;8.008;2022-11-15T09:48:53;12.77;;;11.40;;
3333;SDS011;1679;50.392;8.008;2022-11-15T09:51:38;14.27;;;11.67;;
3333;SDS011;1679;50.392;8.008;2022-11-15T09:56:52;15.00;;;12.63;;
3333;SDS011;1679;50.392;8.008;2022-11-15T10:05:03;17.53;;;13.93;;
3333;SDS011;1679;50.392;8.008;2022-11-15T10:07:42;13.83;;;12.40;;
3333;SDS011;1679;50.392;8.008;2022-11-15T10:10:20;13.13;;;11.80;;
3333;SDS011;1679;50.392;8.008;2022-11-15T10:13:00;13.17;;;11.70;;
3333;SDS011;1679;50.392;8.008;2022-11-15T10:15:27;17.47;;;13.40;;
3333;SDS011;1679;50.392;8.008;2022-11-15T10:27:53;12.90;;;11.60;;
3333;SDS011;1679;50.392;8.008;2022-11-15T10:30:35;17.50;;;11.60;;
3333;SDS011;1679;50.392;8.008;2022-11-15T10:33:13;14.80;;;13.30;;
3333;SDS011;1679;50.392;8.008;2022-11-15T10:36:14;13.60;;;12.30;;
3333;SDS011;1679;50.392;8.008;2022-11-15T10:46:45;12.43;;;11.23;;
3333;SDS011;1679;50.392;8.008;2022-11-15T10:49:24;12.90;;;11.60;;
3333;SDS011;1679;50.392;8.008;2022-11-15T10:52:17;13.97;;;12.27;;
3333;SDS011;1679;50.392;8.008;2022-11-15T10:54:45;14.50;;;12.43;;
3333;SDS011;1679;50.392;8.008;2022-11-15T10:57:16;12.60;;;11.40;;
3333;SDS011;1679;50.392;8.008;2022-11-15T10:59:54;15.33;;;11.70;;
3333;SDS011;1679;50.392;8.008;2022-11-15T11:02:31;15.47;;;12.43;;
3333;SDS011;1679;50.392;8.008;2022-11-15T11:04:57;15.17;;;11.30;;
3333;SDS011;1679;50.392;8.008;2022-11-15T11:07:25;11.87;;;10.67;;
3333;SDS011;1679;50.392;8.008;2022-11-15T11:09:56;12.47;;;11.20;;
3333;SDS011;1679;50.392;8.008;2022-11-15T11:12:41;14.30;;;11.50;;
3333;SDS011;1679;50.392;8.008;2022-11-15T11:15:11;14.00;;;10.70;;
3333;SDS011;1679;50.392;8.008;2022-11-15T11:20:18;16.80;;;14.13;;
3333;SDS011;1679;50.392;8.008;2022-11-15T11:31:30;9.80;;;8.80;;
3333;SDS011;1679;50.392;8.008;2022-11-15T11:34:15;14.00;;;12.30;;
3333;SDS011;1679;50.392;8.008;2022-11-15T11:37:11;10.83;;;9.33;;
3333;SDS011;1679;50.392;8.008;2022-11-15T11:45:14;5.10;;;4.80;;
3333;SDS011;1679;50.392;8.008;2022-11-15T11:47:47;5.17;;;4.77;;
3333;SDS011;1679;50.392;8.008;2022-11-15T11:50:19;5.50;;;5.10;;
3333;SDS011;1679;50.392;8.008;2022-11-15T11:52:54;6.60;;;6.00;;
3333;SDS011;1679;50.392;8.008;2022-11-15T11:58:09;6.23;;;5.73;;
3333;SDS011;1679;50.392;8.008;2022-11-15T12:00:38;9.60;;;4.60;;
3333;SDS011;1679;50.392;8.008;2022-11-15T12:03:12;4.70;;;4.30;;
3333;SDS011;1679;50.392;8.008;2022-11-15T12:05:51;4.43;;;4.00;;
3333;SDS011;1679;50.392;8.008;2022-11-15T12:08:37;4.67;;;4.37;;
3333;SDS011;1679;50.392;8.008;2022-11-15T12:11:13;4.47;;;4.10;;
3333;SDS011;1679;50.392;8.008;2022-11-15T12:13:43;3.53;;;3.33;;
3333;SDS011;1679;50.392;8.008;2022-11-15T12:16:17;3.47;;;3.27;;
3333;SDS011;1679;50.392;8.008;2022-11-15T12:18:50;4.00;;;3.60;;
3333;SDS011;1679;50.392;8.008;2022-11-15T12:24:18;3.60;;;3.30;;
3333;SDS011;1679;50.392;8.008;2022-11-15T12:27:05;3.40;;;3.20;;
3333;SDS011;1679;50.392;8.008;2022-11-15T12:29:47;3.20;;;2.83;;
3333;SDS011;1679;50.392;8.008;2022-11-15T12:34:53;6.17;;;3.83;;
3333;SDS011;1679;50.392;8.008;2022-11-15T12:37:32;3.50;;;3.20;;
3333;SDS011;1679;50.392;8.008;2022-11-15T12:45:37;3.40;;;3.10;;
3333;SDS011;1679;50.392;8.008;2022-11-15T12:56:08;3.70;;;3.47;;
3333;SDS011;1679;50.392;8.008;2022-11-15T13:06:56;3.53;;;3.33;;
3333;SDS011;1679;50.392;8.008;2022-11-15T13:12:03;3.73;;;3.50;;
3333;SDS011;1679;50.392;8.008;2022-11-15T13:17:03;4.40;;;3.60;;
3333;SDS011;1679;50.392;8.008;2022-11-15T13:19:43;4.23;;;3.93;;
3333;SDS011;1679;50.392;8.008;2022-11-15T13:22:11;4.90;;;4.50;;
3333;SDS011;1679;50.392;8.008;2022-11-15T13:24:55;4.20;;;3.90;;
3333;SDS011;1679;50.392;8.008;2022-11-15T13:27:21;6.83;;;5.80;;
3333;SDS011;1679;50.392;8.008;2022-11-15T13:29:47;7.43;;;5.30;;
3333;SDS011;1679;50.392;8.008;2022-11-15T13:32:13;6.93;;;6.30;;
3333;SDS011;1679;50.392;8.008;2022-11-15T13:34:44;5.70;;;5.30;;
3333;SDS011;1679;50.392;8.008;2022-11-15T13:39:46;9.93;;;6.20;;
3333;SDS011;1679;50.392;8.008;2022-11-15T13:42:14;6.33;;;5.83;;
3333;SDS011;1679;50.392;8.008;2022-11-15T13:44:40;8.23;;;7.47;;
3333;SDS011;1679;50.392;8.008;2022-11-15T13:47:27;6.43;;;5.83;;
3333;SDS011;1679;50.392;8.008;2022-11-15T13:49:56;6.10;;;5.63;;
3333;SDS011;1679;50.392;8.008;2022-11-15T13:52:22;6.60;;;6.00;;
3333;SDS011;1679;50.392;8.008;2022-11-15T13:57:26;6.30;;;5.80;;
3333;SDS011;1679;50.392;8.008;2022-11-15T13:59:55;6.70;;;6.10;;
3333;SDS011;1679;50.392;8.008;2022-11-15T14:02:25;6.00;;;5.57;;
3333;SDS011;1679;50.392;8.008;2022-11-15T14:04:58;6.70;;;6.10;;
3333;SDS011;1679;50.392;8.008;2022-11-15T14:07:27;6.50;;;5.90;;
3333;SDS011;1679;50.392;8.008;2022-11-15T14:09:54;8.53;;;7.73;;
3333;SDS011;1679;50.392;8.008;2022-11-15T14:12:30;6.40;;;5.77;;
3333;SDS011;1679;50.392;8.008;2022-11-15T14:14:58;9.33;;;7.43;;
3333;SDS011;1679;50.392;8.008;2022-11-15T14:19:53;7.00;;;6.10;;
3333;SDS011;1679;50.392;8.008;2022-11-15T14:22:20;7.50;;;6.80;;
3333;SDS011;1679;50.392;8.008;2022-11-15T14:25:07;9.50;;;8.60;;
3333;SDS011;1679;50.392;8.008;2022-11-15T14:30:39;8.17;;;7.37;;
3333;SDS011;1679;50.392;8.008;2022-11-15T14:38:37;9.33;;;8.53;;
3333;SDS011;1679;50.392;8.008;2022-11-15T14:41:02;10.07;;;8.97;;
3333;SDS011;1679;50.392;8.008;2022-11-15T14:43:28;8.23;;;7.43;;
3333;SDS011;1679;50.392;8.008;2022-11-15T14:45:53;8.20;;;7.53;;
3333;SDS011;1679;50.392;8.008;2022-11-15T14:48:19;8.07;;;7.37;;
3333;SDS011;1679;50.392;8.008;2022-11-15T14:50:45;9.67;;;8.87;;
3333;SDS011;1679;50.392;8.008;2022-11-15T14:53:11;10.30;;;9.40;;
3333;SDS011;1679;50.392;8.008;2022-11-15T14:55:38;12.37;;;9.13;;
3333;SDS011;1679;50.392;8.008;2022-11-15T14:58:04;9.70;;;8.80;;
3333;SDS011;1679;50.392;8.008;2022-11-15T15:00:33;10.83;;;9.87;;
3333;SDS011;1679;50.392;8.008;2022-11-15T15:03:00;12.27;;;10.07;;
3333;SDS011;1679;50.392;8.008;2022-11-15T15:05:34;10.67;;;9.77;;
3333;SDS011;1679;50.392;8.008;2022-11-15T15:08:05;10.33;;;9.33;;
3333;SDS011;1679;50.392;8.008;2022-11-15T15:10:32;12.13;;;10.90;;
3333;SDS011;1679;50.392;8.008;2022-11-15T15:12:59;10.93;;;9.93;;
3333;SDS011;1679;50.392;8.008;2022-11-15T15:15:26;10.50;;;9.70;;
3333;SDS011;1679;50.392;8.008;2022-11-15T15:17:56;10.67;;;9.80;;
3333;SDS011;1679;50.392;8.008;2022-11-15T15:20:21;12.33;;;11.13;;
3333;SDS011;1679;50.392;8.008;2022-11-15T15:22:47;11.67;;;10.37;;
3333;SDS011;1679;50.392;8.008;2022-11-15T15:25:23;12.53;;;10.30;;
3333;SDS011;1679;50.392;8.008;2022-11-15T15:27:55;11.00;;;10.03;;
3333;SDS011;1679;50.392;8.008;2022-11-15T15:30:25;11.60;;;10.50;;
3333;SDS011;1679;50.392;8.008;2022-11-15T15:32:51;11.60;;;10.40;;
3333;SDS011;1679;50.392;8.008;2022-11-15T15:35:17;11.67;;;10.47;;
3333;SDS011;1679;50.392;8.008;2022-11-15T15:37:43;11.00;;;10.00;;
3333;SDS011;1679;50.392;8.008;2022-11-15T15:40:12;14.07;;;11.70;;
3333;SDS011;1679;50.392;8.008;2022-11-15T15:42:43;14.00;;;12.70;;
3333;SDS011;1679;50.392;8.008;2022-11-15T15:45:08;13.03;;;11.83;;
3333;SDS011;1679;50.392;8.008;2022-11-15T15:47:34;14.20;;;12.90;;
3333;SDS011;1679;50.392;8.008;2022-11-15T15:50:00;15.47;;;12.77;;
3333;SDS011;1679;50.392;8.008;2022-11-15T15:52:26;13.50;;;12.20;;
3333;SDS011;1679;50.392;8.008;2022-11-15T15:54:51;15.93;;;13.97;;
3333;SDS011;1679;50.392;8.008;2022-11-15T15:57:17;12.47;;;11.37;;
3333;SDS011;1679;50.392;8.008;2022-11-15T15:59:43;13.03;;;11.70;;
3333;SDS011;1679;50.392;8.008;2022-11-15T16:02:11;13.40;;;12.20;;
3333;SDS011;1679;50.392;8.008;2022-11-15T16:04:37;13.10;;;11.90;;
3333;SDS011;1679;50.392;8.008;2022-11-15T16:07:02;16.40;;;13.73;;
3333;SDS011;1679;50.392;8.008;2022-11-15T16:09:29;13.73;;;12.53;;
3333;SDS011;1679;50.392;8.008;2022-11-15T16:12:13;13.70;;;12.40;;
3333;SDS011;1679;50.392;8.008;2022-11-15T16:14:41;15.07;;;12.93;;
3333;SDS011;1679;50.392;8.008;2022-11-15T16:17:08;18.93;;;14.77;;
3333;SDS011;1679;50.392;8.008;2022-11-15T16:19:44;14.97;;;13.50;;
3333;SDS011;1679;50.392;8.008;2022-11-15T16:22:10;15.17;;;13.57;;
3333;SDS011;1679;50.392;8.008;2022-11-15T16:24:35;13.13;;;11.80;;
3333;SDS011;1679;50.392;8.008;2022-11-15T16:27:01;14.67;;;13.00;;
3333;SDS011;1679;50.392;8.008;2022-11-15T16:29:27;15.70;;;14.00;;
3333;SDS011;1679;50.392;8.008;2022-11-15T16:31:53;13.73;;;12.33;;
3333;SDS011;1679;50.392;8.008;2022-11-15T16:34:18;16.07;;;14.47;;
3333;SDS011;1679;50.392;8.008;2022-11-15T16:36:44;15.30;;;13.80;;
3333;SDS011;1679;50.392;8.008;2022-11-15T16:39:10;21.20;;;18.30;;
3333;SDS011;1679;50.392;8.008;2022-11-15T16:41:38;17.00;;;15.40;;
3333;SDS011;1679;50.392;8.008;2022-11-15T16:44:04;15.70;;;14.17;;
3333;SDS011;1679;50.392;8.008;2022-11-15T16:46:29;16.27;;;14.70;;
3333;SDS011;1679;50.392;8.008;2022-11-15T16:48:55;15.43;;;13.87;;
3333;SDS011;1679;50.392;8.008;2022-11-15T16:51:21;16.80;;;15.10;;
3333;SDS011;1679;50.392;8.008;2022-11-15T16:53:47;15.53;;;14.00;;
3333;SDS011;1679;50.392;8.008;2022-11-15T16:58:52;12.53;;;11.33;;
3333;SDS011;1679;50.392;8.008;2022-11-15T17:01:32;12.13;;;11.03;;
3333;SDS011;1679;50.392;8.008;2022-11-15T17:04:19;11.83;;;10.43;;
3333;SDS011;1679;50.392;8.008;2022-11-15T17:06:46;12.20;;;10.90;;
3333;SDS011;1679;50.392;8.008;2022-11-15T17:09:16;10.00;;;9.00;;
3333;SDS011;1679;50.392;8.008;2022-11-15T17:11:43;9.70;;;8.80;;
3333;SDS011;1679;50.392;8.008;2022-11-15T17:14:09;10.63;;;9.63;;